sensor_id;sensor_type;location;lat;lon;timestamp;pressure;altitude;pressure_sealevel;temperature
64790;BMP280;51223;51.816;5.862;2022-07-04T00:00:18;102006.63;;;19.54
64790;BMP280;51223;51.816;5.862;2022-07-04T00:02:45;102006.72;;;19.32
64790;BMP280;51223;51.816;5.862;2022-07-04T00:05:11;102005.03;;;19.53
64790;BMP280;51223;51.816;5.862;2022-07-04T00:07:42;102001.81;;;19.33
64790;BMP280;51223;51.816;5.862;2022-07-04T00:10:10;102006.06;;;19.28
64790;BMP280;51223;51.816;5.862;2022-07-04T00:12:36;102012.91;;;19.40
64790;BMP280;51223;51.816;5.862;2022-07-04T00:15:04;102010.63;;;19.26
64790;BMP280;51223;51.816;5.862;2022-07-04T00:17:30;102012.03;;;19.00
64790;BMP280;51223;51.816;5.862;2022-07-04T00:19:56;102009.84;;;19.25
64790;BMP280;51223;51.816;5.862;2022-07-04T00:22:22;102011.75;;;19.28
64790;BMP280;51223;51.816;5.862;2022-07-04T00:24:48;102018.88;;;19.33
64790;BMP280;51223;51.816;5.862;2022-07-04T00:27:14;102013.53;;;19.13
64790;BMP280;51223;51.816;5.862;2022-07-04T00:29:39;102011.59;;;19.32
64790;BMP280;51223;51.816;5.862;2022-07-04T00:32:05;102017.44;;;19.07
64790;BMP280;51223;51.816;5.862;2022-07-04T00:34:31;102012.72;;;19.13
64790;BMP280;51223;51.816;5.862;2022-07-04T00:36:57;102008.97;;;18.72
64790;BMP280;51223;51.816;5.862;2022-07-04T00:39:23;102001.09;;;18.55
64790;BMP280;51223;51.816;5.862;2022-07-04T00:41:49;101993.19;;;18.93
64790;BMP280;51223;51.816;5.862;2022-07-04T00:44:15;101998.75;;;18.97
64790;BMP280;51223;51.816;5.862;2022-07-04T00:46:42;102000.75;;;18.87
64790;BMP280;51223;51.816;5.862;2022-07-04T00:49:09;102003.88;;;18.67
64790;BMP280;51223;51.816;5.862;2022-07-04T00:51:40;102002.78;;;18.86
64790;BMP280;51223;51.816;5.862;2022-07-04T00:54:08;102006.63;;;18.93
64790;BMP280;51223;51.816;5.862;2022-07-04T00:56:39;102007.72;;;18.95
64790;BMP280;51223;51.816;5.862;2022-07-04T00:59:06;102004.50;;;18.62
64790;BMP280;51223;51.816;5.862;2022-07-04T01:01:32;102005.41;;;18.59
64790;BMP280;51223;51.816;5.862;2022-07-04T01:03:58;102005.72;;;18.39
64790;BMP280;51223;51.816;5.862;2022-07-04T01:06:24;102004.88;;;18.73
64790;BMP280;51223;51.816;5.862;2022-07-04T01:08:50;102011.34;;;18.74
64790;BMP280;51223;51.816;5.862;2022-07-04T01:11:16;102004.88;;;18.52
64790;BMP280;51223;51.816;5.862;2022-07-04T01:13:42;102013.75;;;18.75
64790;BMP280;51223;51.816;5.862;2022-07-04T01:16:10;102011.66;;;18.54
64790;BMP280;51223;51.816;5.862;2022-07-04T01:18:37;102009.50;;;18.58
64790;BMP280;51223;51.816;5.862;2022-07-04T01:21:04;102004.34;;;18.66
64790;BMP280;51223;51.816;5.862;2022-07-04T01:23:30;102014.28;;;18.61
64790;BMP280;51223;51.816;5.862;2022-07-04T01:25:57;102004.66;;;18.46
64790;BMP280;51223;51.816;5.862;2022-07-04T01:28:23;101998.66;;;18.44
64790;BMP280;51223;51.816;5.862;2022-07-04T01:30:50;101996.28;;;18.30
64790;BMP280;51223;51.816;5.862;2022-07-04T01:33:16;101997.78;;;18.22
64790;BMP280;51223;51.816;5.862;2022-07-04T01:35:47;101995.78;;;18.10
64790;BMP280;51223;51.816;5.862;2022-07-04T01:38:13;101983.59;;;18.22
64790;BMP280;51223;51.816;5.862;2022-07-04T01:40:39;101982.78;;;18.34
64790;BMP280;51223;51.816;5.862;2022-07-04T01:43:05;101978.25;;;18.24
64790;BMP280;51223;51.816;5.862;2022-07-04T01:45:31;101977.03;;;18.12
64790;BMP280;51223;51.816;5.862;2022-07-04T01:48:10;101975.34;;;18.15
64790;BMP280;51223;51.816;5.862;2022-07-04T01:50:36;101967.78;;;17.86
64790;BMP280;51223;51.816;5.862;2022-07-04T01:53:02;101974.38;;;17.58
64790;BMP280;51223;51.816;5.862;2022-07-04T01:55:29;101974.59;;;17.76
64790;BMP280;51223;51.816;5.862;2022-07-04T01:57:55;101967.75;;;17.99
64790;BMP280;51223;51.816;5.862;2022-07-04T02:00:22;101974.25;;;17.99
64790;BMP280;51223;51.816;5.862;2022-07-04T02:03:07;101978.09;;;18.06
64790;BMP280;51223;51.816;5.862;2022-07-04T02:05:33;101973.66;;;17.54
64790;BMP280;51223;51.816;5.862;2022-07-04T02:07:59;101976.63;;;17.25
64790;BMP280;51223;51.816;5.862;2022-07-04T02:10:25;101978.31;;;17.48
64790;BMP280;51223;51.816;5.862;2022-07-04T02:12:50;101972.63;;;17.48
64790;BMP280;51223;51.816;5.862;2022-07-04T02:15:35;101974.00;;;17.43
64790;BMP280;51223;51.816;5.862;2022-07-04T02:18:03;101960.41;;;17.63
64790;BMP280;51223;51.816;5.862;2022-07-04T02:20:29;101963.56;;;17.78
64790;BMP280;51223;51.816;5.862;2022-07-04T02:22:55;101964.28;;;17.70
64790;BMP280;51223;51.816;5.862;2022-07-04T02:25:21;101955.31;;;17.71
64790;BMP280;51223;51.816;5.862;2022-07-04T02:27:47;101953.03;;;17.66
64790;BMP280;51223;51.816;5.862;2022-07-04T02:30:13;101950.97;;;17.54
64790;BMP280;51223;51.816;5.862;2022-07-04T02:32:39;101960.63;;;17.56
64790;BMP280;51223;51.816;5.862;2022-07-04T02:35:06;101954.06;;;17.47
64790;BMP280;51223;51.816;5.862;2022-07-04T02:37:32;101953.47;;;17.39
64790;BMP280;51223;51.816;5.862;2022-07-04T02:39:58;101961.31;;;17.23
64790;BMP280;51223;51.816;5.862;2022-07-04T02:42:28;101955.41;;;17.55
64790;BMP280;51223;51.816;5.862;2022-07-04T02:44:55;101954.84;;;17.60
64790;BMP280;51223;51.816;5.862;2022-07-04T02:47:21;101956.06;;;17.34
64790;BMP280;51223;51.816;5.862;2022-07-04T02:49:46;101964.47;;;17.25
64790;BMP280;51223;51.816;5.862;2022-07-04T02:52:12;101961.31;;;17.35
64790;BMP280;51223;51.816;5.862;2022-07-04T02:54:38;101966.28;;;17.44
64790;BMP280;51223;51.816;5.862;2022-07-04T02:57:05;101964.94;;;17.23
64790;BMP280;51223;51.816;5.862;2022-07-04T02:59:30;101965.69;;;17.11
64790;BMP280;51223;51.816;5.862;2022-07-04T03:01:56;101966.31;;;17.31
64790;BMP280;51223;51.816;5.862;2022-07-04T03:04:22;101970.63;;;16.82
64790;BMP280;51223;51.816;5.862;2022-07-04T03:06:48;101976.06;;;16.89
64790;BMP280;51223;51.816;5.862;2022-07-04T03:09:14;101967.91;;;16.91
64790;BMP280;51223;51.816;5.862;2022-07-04T03:11:40;101968.00;;;16.58
64790;BMP280;51223;51.816;5.862;2022-07-04T03:14:05;101966.50;;;16.83
64790;BMP280;51223;51.816;5.862;2022-07-04T03:16:31;101983.28;;;16.77
64790;BMP280;51223;51.816;5.862;2022-07-04T03:18:57;101984.69;;;16.69
64790;BMP280;51223;51.816;5.862;2022-07-04T03:21:23;101989.16;;;17.11
64790;BMP280;51223;51.816;5.862;2022-07-04T03:23:49;101999.66;;;16.69
64790;BMP280;51223;51.816;5.862;2022-07-04T03:28:50;101998.50;;;16.38
64790;BMP280;51223;51.816;5.862;2022-07-04T03:31:17;101997.34;;;16.81
64790;BMP280;51223;51.816;5.862;2022-07-04T03:33:43;102003.94;;;16.90
64790;BMP280;51223;51.816;5.862;2022-07-04T03:36:09;102007.75;;;16.55
64790;BMP280;51223;51.816;5.862;2022-07-04T03:38:34;102002.50;;;16.98
64790;BMP280;51223;51.816;5.862;2022-07-04T03:41:00;102002.34;;;16.89
64790;BMP280;51223;51.816;5.862;2022-07-04T03:43:26;102007.56;;;17.19
64790;BMP280;51223;51.816;5.862;2022-07-04T03:45:52;102002.34;;;17.18
64790;BMP280;51223;51.816;5.862;2022-07-04T03:48:18;101999.94;;;17.16
64790;BMP280;51223;51.816;5.862;2022-07-04T03:50:43;102007.59;;;17.03
64790;BMP280;51223;51.816;5.862;2022-07-04T03:53:09;102012.00;;;17.20
64790;BMP280;51223;51.816;5.862;2022-07-04T03:55:35;102011.88;;;17.24
64790;BMP280;51223;51.816;5.862;2022-07-04T03:58:01;102019.38;;;17.31
64790;BMP280;51223;51.816;5.862;2022-07-04T04:00:30;102016.88;;;17.20
64790;BMP280;51223;51.816;5.862;2022-07-04T04:02:57;102021.78;;;17.03
64790;BMP280;51223;51.816;5.862;2022-07-04T04:05:23;102020.50;;;16.92
64790;BMP280;51223;51.816;5.862;2022-07-04T04:07:54;102032.66;;;16.92
64790;BMP280;51223;51.816;5.862;2022-07-04T04:10:20;102031.53;;;17.02
64790;BMP280;51223;51.816;5.862;2022-07-04T04:12:45;102032.78;;;17.01
64790;BMP280;51223;51.816;5.862;2022-07-04T04:15:11;102034.88;;;16.40
64790;BMP280;51223;51.816;5.862;2022-07-04T04:17:37;102034.16;;;16.19
64790;BMP280;51223;51.816;5.862;2022-07-04T04:20:03;102042.53;;;16.55
64790;BMP280;51223;51.816;5.862;2022-07-04T04:22:30;102044.00;;;16.92
64790;BMP280;51223;51.816;5.862;2022-07-04T04:24:57;102041.69;;;16.87
64790;BMP280;51223;51.816;5.862;2022-07-04T04:27:23;102043.75;;;16.99
64790;BMP280;51223;51.816;5.862;2022-07-04T04:29:48;102037.84;;;16.94
64790;BMP280;51223;51.816;5.862;2022-07-04T04:32:14;102040.38;;;17.04
64790;BMP280;51223;51.816;5.862;2022-07-04T04:34:40;102043.31;;;17.01
64790;BMP280;51223;51.816;5.862;2022-07-04T04:37:06;102039.28;;;17.14
64790;BMP280;51223;51.816;5.862;2022-07-04T04:39:32;102038.38;;;17.17
64790;BMP280;51223;51.816;5.862;2022-07-04T04:41:58;102038.78;;;17.03
64790;BMP280;51223;51.816;5.862;2022-07-04T04:44:24;102049.22;;;17.23
64790;BMP280;51223;51.816;5.862;2022-07-04T04:46:50;102052.72;;;17.27
64790;BMP280;51223;51.816;5.862;2022-07-04T04:49:15;102045.94;;;17.37
64790;BMP280;51223;51.816;5.862;2022-07-04T04:51:43;102046.50;;;17.32
64790;BMP280;51223;51.816;5.862;2022-07-04T04:54:08;102043.44;;;17.39
64790;BMP280;51223;51.816;5.862;2022-07-04T04:56:34;102042.66;;;17.51
64790;BMP280;51223;51.816;5.862;2022-07-04T04:59:00;102044.53;;;17.29
64790;BMP280;51223;51.816;5.862;2022-07-04T05:01:26;102041.03;;;17.25
64790;BMP280;51223;51.816;5.862;2022-07-04T05:03:52;102041.97;;;17.47
64790;BMP280;51223;51.816;5.862;2022-07-04T05:06:18;102036.22;;;17.63
64790;BMP280;51223;51.816;5.862;2022-07-04T05:08:44;102037.81;;;17.89
64790;BMP280;51223;51.816;5.862;2022-07-04T05:11:10;102034.63;;;17.87
64790;BMP280;51223;51.816;5.862;2022-07-04T05:13:36;102037.22;;;17.94
64790;BMP280;51223;51.816;5.862;2022-07-04T05:16:03;102036.78;;;18.09
64790;BMP280;51223;51.816;5.862;2022-07-04T05:18:29;102039.88;;;18.36
64790;BMP280;51223;51.816;5.862;2022-07-04T05:20:54;102040.44;;;18.56
64790;BMP280;51223;51.816;5.862;2022-07-04T05:23:20;102043.16;;;18.81
64790;BMP280;51223;51.816;5.862;2022-07-04T05:25:47;102042.00;;;18.92
64790;BMP280;51223;51.816;5.862;2022-07-04T05:28:13;102044.25;;;18.97
64790;BMP280;51223;51.816;5.862;2022-07-04T05:30:38;102037.50;;;19.03
64790;BMP280;51223;51.816;5.862;2022-07-04T05:33:04;102036.41;;;19.10
64790;BMP280;51223;51.816;5.862;2022-07-04T05:35:30;102045.59;;;19.36
64790;BMP280;51223;51.816;5.862;2022-07-04T05:37:58;102050.63;;;19.10
64790;BMP280;51223;51.816;5.862;2022-07-04T05:40:24;102049.03;;;19.30
64790;BMP280;51223;51.816;5.862;2022-07-04T05:42:50;102051.00;;;19.43
64790;BMP280;51223;51.816;5.862;2022-07-04T05:45:16;102057.22;;;19.50
64790;BMP280;51223;51.816;5.862;2022-07-04T05:47:42;102069.25;;;19.54
64790;BMP280;51223;51.816;5.862;2022-07-04T05:50:08;102070.81;;;19.86
64790;BMP280;51223;51.816;5.862;2022-07-04T05:52:35;102068.28;;;19.88
64790;BMP280;51223;51.816;5.862;2022-07-04T05:55:01;102074.47;;;19.87
64790;BMP280;51223;51.816;5.862;2022-07-04T05:57:26;102079.84;;;19.94
64790;BMP280;51223;51.816;5.862;2022-07-04T05:59:53;102073.59;;;20.08
64790;BMP280;51223;51.816;5.862;2022-07-04T06:02:19;102073.56;;;19.99
64790;BMP280;51223;51.816;5.862;2022-07-04T06:04:45;102072.81;;;20.07
64790;BMP280;51223;51.816;5.862;2022-07-04T06:07:10;102071.69;;;20.14
64790;BMP280;51223;51.816;5.862;2022-07-04T06:09:36;102067.59;;;20.15
64790;BMP280;51223;51.816;5.862;2022-07-04T06:12:04;102059.81;;;20.06
64790;BMP280;51223;51.816;5.862;2022-07-04T06:14:30;102077.16;;;20.39
64790;BMP280;51223;51.816;5.862;2022-07-04T06:16:56;102078.59;;;20.62
64790;BMP280;51223;51.816;5.862;2022-07-04T06:19:22;102075.13;;;19.29
64790;BMP280;51223;51.816;5.862;2022-07-04T06:21:47;102086.34;;;20.52
64790;BMP280;51223;51.816;5.862;2022-07-04T06:24:13;102081.53;;;19.73
64790;BMP280;51223;51.816;5.862;2022-07-04T06:26:39;102083.81;;;20.54
64790;BMP280;51223;51.816;5.862;2022-07-04T06:29:05;102083.19;;;20.96
64790;BMP280;51223;51.816;5.862;2022-07-04T06:31:31;102086.69;;;20.82
64790;BMP280;51223;51.816;5.862;2022-07-04T06:33:57;102084.09;;;21.02
64790;BMP280;51223;51.816;5.862;2022-07-04T06:36:41;102077.09;;;19.72
64790;BMP280;51223;51.816;5.862;2022-07-04T06:39:07;102072.38;;;20.73
64790;BMP280;51223;51.816;5.862;2022-07-04T06:41:33;102071.78;;;20.87
64790;BMP280;51223;51.816;5.862;2022-07-04T06:43:59;102057.97;;;21.54
64790;BMP280;51223;51.816;5.862;2022-07-04T06:46:24;102067.75;;;21.72
64790;BMP280;51223;51.816;5.862;2022-07-04T06:48:50;102077.28;;;21.69
64790;BMP280;51223;51.816;5.862;2022-07-04T06:51:16;102069.88;;;21.86
64790;BMP280;51223;51.816;5.862;2022-07-04T06:53:43;102075.22;;;21.69
64790;BMP280;51223;51.816;5.862;2022-07-04T06:56:11;102069.84;;;21.20
64790;BMP280;51223;51.816;5.862;2022-07-04T06:58:37;102066.28;;;21.34
64790;BMP280;51223;51.816;5.862;2022-07-04T07:01:03;102057.81;;;20.98
64790;BMP280;51223;51.816;5.862;2022-07-04T07:03:29;102049.69;;;21.24
64790;BMP280;51223;51.816;5.862;2022-07-04T07:05:55;102058.91;;;21.19
64790;BMP280;51223;51.816;5.862;2022-07-04T07:08:22;102053.38;;;20.24
64790;BMP280;51223;51.816;5.862;2022-07-04T07:10:48;102071.72;;;21.23
64790;BMP280;51223;51.816;5.862;2022-07-04T07:13:14;102057.88;;;21.40
64790;BMP280;51223;51.816;5.862;2022-07-04T07:15:40;102064.16;;;20.93
64790;BMP280;51223;51.816;5.862;2022-07-04T07:18:06;102052.22;;;21.73
64790;BMP280;51223;51.816;5.862;2022-07-04T07:20:32;102047.94;;;21.68
64790;BMP280;51223;51.816;5.862;2022-07-04T07:22:58;102057.41;;;22.07
64790;BMP280;51223;51.816;5.862;2022-07-04T07:25:26;102067.03;;;21.53
64790;BMP280;51223;51.816;5.862;2022-07-04T07:27:52;102063.56;;;22.29
64790;BMP280;51223;51.816;5.862;2022-07-04T07:30:18;102066.22;;;22.57
64790;BMP280;51223;51.816;5.862;2022-07-04T07:32:44;102067.16;;;21.91
64790;BMP280;51223;51.816;5.862;2022-07-04T07:35:11;102068.31;;;21.43
64790;BMP280;51223;51.816;5.862;2022-07-04T07:37:37;102063.44;;;21.76
64790;BMP280;51223;51.816;5.862;2022-07-04T07:40:03;102062.75;;;21.48
64790;BMP280;51223;51.816;5.862;2022-07-04T07:42:29;102055.94;;;22.12
64790;BMP280;51223;51.816;5.862;2022-07-04T07:44:55;102056.53;;;21.92
64790;BMP280;51223;51.816;5.862;2022-07-04T07:47:23;102052.25;;;22.35
64790;BMP280;51223;51.816;5.862;2022-07-04T07:49:48;102038.59;;;22.39
64790;BMP280;51223;51.816;5.862;2022-07-04T07:52:14;102039.16;;;21.81
64790;BMP280;51223;51.816;5.862;2022-07-04T07:54:41;102037.59;;;22.80
64790;BMP280;51223;51.816;5.862;2022-07-04T07:57:07;102047.44;;;22.94
64790;BMP280;51223;51.816;5.862;2022-07-04T07:59:33;102044.25;;;22.63
64790;BMP280;51223;51.816;5.862;2022-07-04T08:01:58;102039.75;;;23.00
64790;BMP280;51223;51.816;5.862;2022-07-04T08:04:24;102041.31;;;23.01
64790;BMP280;51223;51.816;5.862;2022-07-04T08:07:10;102043.81;;;23.58
64790;BMP280;51223;51.816;5.862;2022-07-04T08:09:38;102042.56;;;22.56
64790;BMP280;51223;51.816;5.862;2022-07-04T08:12:06;102048.94;;;22.51
64790;BMP280;51223;51.816;5.862;2022-07-04T08:14:33;102047.66;;;22.37
64790;BMP280;51223;51.816;5.862;2022-07-04T08:17:00;102051.09;;;23.09
64790;BMP280;51223;51.816;5.862;2022-07-04T08:19:26;102046.44;;;23.12
64790;BMP280;51223;51.816;5.862;2022-07-04T08:21:53;102051.78;;;23.33
64790;BMP280;51223;51.816;5.862;2022-07-04T08:24:19;102051.28;;;23.06
64790;BMP280;51223;51.816;5.862;2022-07-04T08:26:45;102057.31;;;23.72
64790;BMP280;51223;51.816;5.862;2022-07-04T08:29:11;102053.34;;;24.04
64790;BMP280;51223;51.816;5.862;2022-07-04T08:31:37;102062.31;;;22.07
64790;BMP280;51223;51.816;5.862;2022-07-04T08:34:03;102057.53;;;22.13
64790;BMP280;51223;51.816;5.862;2022-07-04T08:36:29;102058.84;;;22.50
64790;BMP280;51223;51.816;5.862;2022-07-04T08:38:54;102064.56;;;22.65
64790;BMP280;51223;51.816;5.862;2022-07-04T08:41:20;102063.91;;;22.31
64790;BMP280;51223;51.816;5.862;2022-07-04T08:43:47;102068.69;;;23.66
64790;BMP280;51223;51.816;5.862;2022-07-04T08:46:15;102063.53;;;23.06
64790;BMP280;51223;51.816;5.862;2022-07-04T08:48:50;102056.25;;;23.69
64790;BMP280;51223;51.816;5.862;2022-07-04T08:51:22;102060.44;;;23.74
64790;BMP280;51223;51.816;5.862;2022-07-04T08:53:52;102058.47;;;23.01
64790;BMP280;51223;51.816;5.862;2022-07-04T08:56:20;102059.09;;;23.69
64790;BMP280;51223;51.816;5.862;2022-07-04T08:59:05;102067.75;;;23.75
64790;BMP280;51223;51.816;5.862;2022-07-04T09:01:31;102068.63;;;24.62
64790;BMP280;51223;51.816;5.862;2022-07-04T09:03:57;102062.88;;;24.16
64790;BMP280;51223;51.816;5.862;2022-07-04T09:06:23;102065.72;;;24.36
64790;BMP280;51223;51.816;5.862;2022-07-04T09:08:49;102060.06;;;23.81
64790;BMP280;51223;51.816;5.862;2022-07-04T09:11:18;102054.25;;;24.16
64790;BMP280;51223;51.816;5.862;2022-07-04T09:13:43;102050.16;;;23.47
64790;BMP280;51223;51.816;5.862;2022-07-04T09:16:09;102056.47;;;24.06
64790;BMP280;51223;51.816;5.862;2022-07-04T09:18:36;102054.97;;;23.91
64790;BMP280;51223;51.816;5.862;2022-07-04T09:21:04;102055.94;;;24.02
64790;BMP280;51223;51.816;5.862;2022-07-04T09:23:33;102054.38;;;24.73
64790;BMP280;51223;51.816;5.862;2022-07-04T09:28:45;102065.28;;;24.69
64790;BMP280;51223;51.816;5.862;2022-07-04T09:31:22;102063.63;;;24.83
64790;BMP280;51223;51.816;5.862;2022-07-04T09:34:02;102054.94;;;25.08
64790;BMP280;51223;51.816;5.862;2022-07-04T09:36:31;102063.94;;;25.21
64790;BMP280;51223;51.816;5.862;2022-07-04T09:41:55;102052.22;;;23.47
64790;BMP280;51223;51.816;5.862;2022-07-04T09:44:23;102048.88;;;24.23
64790;BMP280;51223;51.816;5.862;2022-07-04T09:46:50;102054.16;;;23.06
64790;BMP280;51223;51.816;5.862;2022-07-04T09:49:17;102060.38;;;22.36
64790;BMP280;51223;51.816;5.862;2022-07-04T09:51:46;102065.09;;;23.07
64790;BMP280;51223;51.816;5.862;2022-07-04T09:54:28;102061.59;;;22.59
64790;BMP280;51223;51.816;5.862;2022-07-04T09:56:59;102054.03;;;23.15
64790;BMP280;51223;51.816;5.862;2022-07-04T09:59:26;102048.44;;;23.20
64790;BMP280;51223;51.816;5.862;2022-07-04T10:02:12;102053.38;;;23.69
64790;BMP280;51223;51.816;5.862;2022-07-04T10:04:47;102056.13;;;23.00
64790;BMP280;51223;51.816;5.862;2022-07-04T10:07:38;102050.50;;;23.20
64790;BMP280;51223;51.816;5.862;2022-07-04T10:10:25;102047.06;;;23.65
64790;BMP280;51223;51.816;5.862;2022-07-04T10:12:52;102055.56;;;24.61
64790;BMP280;51223;51.816;5.862;2022-07-04T10:15:19;102060.78;;;24.88
64790;BMP280;51223;51.816;5.862;2022-07-04T10:17:45;102055.09;;;23.81
64790;BMP280;51223;51.816;5.862;2022-07-04T10:20:12;102052.75;;;23.80
64790;BMP280;51223;51.816;5.862;2022-07-04T10:22:38;102049.16;;;25.71
64790;BMP280;51223;51.816;5.862;2022-07-04T10:25:05;102046.44;;;24.88
64790;BMP280;51223;51.816;5.862;2022-07-04T10:27:33;102054.59;;;25.63
64790;BMP280;51223;51.816;5.862;2022-07-04T10:30:00;102044.19;;;26.53
64790;BMP280;51223;51.816;5.862;2022-07-04T10:32:28;102047.03;;;24.00
64790;BMP280;51223;51.816;5.862;2022-07-04T10:34:54;102030.63;;;23.31
64790;BMP280;51223;51.816;5.862;2022-07-04T10:37:20;102039.56;;;24.08
64790;BMP280;51223;51.816;5.862;2022-07-04T10:39:47;102029.19;;;24.11
64790;BMP280;51223;51.816;5.862;2022-07-04T10:42:23;102028.38;;;24.30
64790;BMP280;51223;51.816;5.862;2022-07-04T10:44:50;102030.44;;;24.30
64790;BMP280;51223;51.816;5.862;2022-07-04T10:47:23;102030.13;;;24.02
64790;BMP280;51223;51.816;5.862;2022-07-04T10:49:51;102028.72;;;24.64
64790;BMP280;51223;51.816;5.862;2022-07-04T10:52:17;102029.75;;;24.87
64790;BMP280;51223;51.816;5.862;2022-07-04T10:54:44;102026.91;;;24.92
64790;BMP280;51223;51.816;5.862;2022-07-04T10:57:19;102025.09;;;23.97
64790;BMP280;51223;51.816;5.862;2022-07-04T11:02:25;102024.69;;;24.76
64790;BMP280;51223;51.816;5.862;2022-07-04T11:05:10;102031.16;;;25.02
64790;BMP280;51223;51.816;5.862;2022-07-04T11:17:51;102011.50;;;26.72
64790;BMP280;51223;51.816;5.862;2022-07-04T11:20:18;102020.44;;;26.86
64790;BMP280;51223;51.816;5.862;2022-07-04T11:22:44;102008.19;;;25.02
64790;BMP280;51223;51.816;5.862;2022-07-04T11:25:11;102020.97;;;25.80
64790;BMP280;51223;51.816;5.862;2022-07-04T11:27:38;102023.66;;;25.10
64790;BMP280;51223;51.816;5.862;2022-07-04T11:30:04;102010.72;;;26.72
64790;BMP280;51223;51.816;5.862;2022-07-04T11:32:32;102005.50;;;26.87
64790;BMP280;51223;51.816;5.862;2022-07-04T11:34:59;102006.06;;;25.76
64790;BMP280;51223;51.816;5.862;2022-07-04T11:37:25;102008.41;;;25.24
64790;BMP280;51223;51.816;5.862;2022-07-04T11:39:52;102005.56;;;25.89
64790;BMP280;51223;51.816;5.862;2022-07-04T11:42:39;102009.47;;;25.33
64790;BMP280;51223;51.816;5.862;2022-07-04T11:45:24;102008.44;;;24.21
64790;BMP280;51223;51.816;5.862;2022-07-04T11:47:50;101999.72;;;25.19
64790;BMP280;51223;51.816;5.862;2022-07-04T11:50:17;101998.34;;;26.10
64790;BMP280;51223;51.816;5.862;2022-07-04T11:52:46;101999.72;;;26.70
64790;BMP280;51223;51.816;5.862;2022-07-04T11:55:15;101991.34;;;27.17
64790;BMP280;51223;51.816;5.862;2022-07-04T11:57:44;101988.75;;;26.47
64790;BMP280;51223;51.816;5.862;2022-07-04T12:00:12;101991.03;;;26.26
64790;BMP280;51223;51.816;5.862;2022-07-04T12:02:38;101983.06;;;25.71
64790;BMP280;51223;51.816;5.862;2022-07-04T12:05:07;101991.53;;;25.06
64790;BMP280;51223;51.816;5.862;2022-07-04T12:07:35;101988.44;;;26.28
64790;BMP280;51223;51.816;5.862;2022-07-04T12:10:13;101978.00;;;27.14
64790;BMP280;51223;51.816;5.862;2022-07-04T12:12:54;101973.84;;;26.37
64790;BMP280;51223;51.816;5.862;2022-07-04T12:15:23;101968.09;;;25.56
64790;BMP280;51223;51.816;5.862;2022-07-04T12:17:51;101977.72;;;25.10
64790;BMP280;51223;51.816;5.862;2022-07-04T12:20:17;101968.31;;;24.73
64790;BMP280;51223;51.816;5.862;2022-07-04T12:22:52;101976.22;;;24.83
64790;BMP280;51223;51.816;5.862;2022-07-04T12:25:26;101974.56;;;24.20
64790;BMP280;51223;51.816;5.862;2022-07-04T12:28:03;101983.84;;;24.87
64790;BMP280;51223;51.816;5.862;2022-07-04T12:30:32;101979.75;;;25.41
64790;BMP280;51223;51.816;5.862;2022-07-04T12:33:00;101974.66;;;25.19
64790;BMP280;51223;51.816;5.862;2022-07-04T12:38:11;101974.47;;;24.92
64790;BMP280;51223;51.816;5.862;2022-07-04T12:40:48;101972.53;;;25.57
64790;BMP280;51223;51.816;5.862;2022-07-04T12:43:16;101968.16;;;25.72
64790;BMP280;51223;51.816;5.862;2022-07-04T12:45:43;101972.16;;;25.01
64790;BMP280;51223;51.816;5.862;2022-07-04T12:48:21;101963.56;;;26.08
64790;BMP280;51223;51.816;5.862;2022-07-04T12:50:48;101963.63;;;26.42
64790;BMP280;51223;51.816;5.862;2022-07-04T12:53:15;101965.47;;;26.50
64790;BMP280;51223;51.816;5.862;2022-07-04T12:55:42;101964.63;;;26.16
64790;BMP280;51223;51.816;5.862;2022-07-04T12:58:08;101960.75;;;26.58
64790;BMP280;51223;51.816;5.862;2022-07-04T13:00:35;101962.31;;;26.87
64790;BMP280;51223;51.816;5.862;2022-07-04T13:03:02;101959.66;;;26.28
64790;BMP280;51223;51.816;5.862;2022-07-04T13:05:27;101960.97;;;26.21
64790;BMP280;51223;51.816;5.862;2022-07-04T13:07:53;101950.56;;;26.85
64790;BMP280;51223;51.816;5.862;2022-07-04T13:10:19;101941.84;;;26.02
64790;BMP280;51223;51.816;5.862;2022-07-04T13:12:45;101958.31;;;25.31
64790;BMP280;51223;51.816;5.862;2022-07-04T13:15:11;101951.84;;;26.84
64790;BMP280;51223;51.816;5.862;2022-07-04T13:17:37;101961.50;;;27.14
64790;BMP280;51223;51.816;5.862;2022-07-04T13:20:04;101960.09;;;25.82
64790;BMP280;51223;51.816;5.862;2022-07-04T13:22:30;101952.78;;;25.81
64790;BMP280;51223;51.816;5.862;2022-07-04T13:24:56;101945.47;;;25.26
64790;BMP280;51223;51.816;5.862;2022-07-04T13:27:22;101956.16;;;25.20
64790;BMP280;51223;51.816;5.862;2022-07-04T13:29:47;101941.88;;;26.13
64790;BMP280;51223;51.816;5.862;2022-07-04T13:32:13;101948.59;;;25.23
64790;BMP280;51223;51.816;5.862;2022-07-04T13:34:39;101957.34;;;26.71
64790;BMP280;51223;51.816;5.862;2022-07-04T13:37:05;101954.41;;;25.40
64790;BMP280;51223;51.816;5.862;2022-07-04T13:39:31;101948.84;;;27.40
64790;BMP280;51223;51.816;5.862;2022-07-04T13:41:57;101955.25;;;26.77
64790;BMP280;51223;51.816;5.862;2022-07-04T13:44:24;101959.94;;;27.13
64790;BMP280;51223;51.816;5.862;2022-07-04T13:46:49;101966.75;;;26.33
64790;BMP280;51223;51.816;5.862;2022-07-04T13:49:15;101949.22;;;26.86
64790;BMP280;51223;51.816;5.862;2022-07-04T13:51:41;101956.28;;;26.91
64790;BMP280;51223;51.816;5.862;2022-07-04T13:54:07;101962.97;;;27.38
64790;BMP280;51223;51.816;5.862;2022-07-04T13:56:34;101961.41;;;27.37
64790;BMP280;51223;51.816;5.862;2022-07-04T13:59:00;101962.38;;;27.61
64790;BMP280;51223;51.816;5.862;2022-07-04T14:01:27;101956.59;;;26.76
64790;BMP280;51223;51.816;5.862;2022-07-04T14:03:53;101952.38;;;26.71
64790;BMP280;51223;51.816;5.862;2022-07-04T14:06:19;101946.81;;;27.75
64790;BMP280;51223;51.816;5.862;2022-07-04T14:08:45;101953.44;;;26.46
64790;BMP280;51223;51.816;5.862;2022-07-04T14:11:12;101960.56;;;25.64
64790;BMP280;51223;51.816;5.862;2022-07-04T14:13:38;101949.06;;;27.42
64790;BMP280;51223;51.816;5.862;2022-07-04T14:16:06;101948.19;;;26.84
64790;BMP280;51223;51.816;5.862;2022-07-04T14:18:33;101951.75;;;27.28
64790;BMP280;51223;51.816;5.862;2022-07-04T14:20:59;101941.75;;;28.28